createdAt,value
2022-10-02T04:00:26.276Z,2.90
2022-10-02T04:11:31.122Z,4.30
2022-10-02T04:22:30.995Z,2.60
2022-10-02T04:33:33.258Z,3.20
2022-10-02T04:44:30.765Z,3.00
2022-10-02T04:55:30.636Z,2.10
2022-10-02T05:06:30.517Z,2.50
2022-10-02T05:17:30.383Z,2.90
2022-10-02T05:28:30.405Z,1.80
2022-10-02T05:39:30.134Z,1.90
2022-10-02T05:50:30.045Z,2.90
2022-10-02T06:01:29.943Z,3.80
2022-10-02T06:12:29.759Z,2.00
2022-10-02T06:23:29.668Z,1.70
2022-10-02T06:34:29.515Z,2.60
2022-10-02T06:45:29.458Z,2.10
2022-10-02T06:56:29.273Z,2.30
2022-10-02T07:07:29.146Z,3.00
2022-10-02T07:18:29.067Z,2.60
2022-10-02T07:29:28.891Z,1.90
2022-10-02T07:40:28.789Z,2.20
2022-10-02T07:51:28.654Z,1.90
2022-10-02T08:02:28.590Z,1.20
2022-10-02T08:13:28.407Z,2.30
2022-10-02T08:24:28.277Z,1.40
2022-10-02T08:35:28.149Z,1.30
2022-10-02T08:46:28.060Z,1.50
2022-10-02T08:57:27.913Z,1.30
2022-10-02T09:08:28.786Z,1.70
2022-10-02T09:19:27.660Z,1.40
2022-10-02T09:30:27.534Z,1.30
2022-10-02T09:41:27.417Z,1.20
2022-10-02T09:52:27.298Z,1.00
2022-10-02T10:03:27.160Z,1.40
2022-10-02T10:14:27.063Z,1.00
2022-10-02T10:25:26.916Z,0.90
2022-10-02T10:36:26.792Z,1.50
2022-10-02T10:47:26.668Z,1.10
2022-10-02T10:58:26.550Z,0.80
2022-10-02T11:09:26.463Z,1.20
2022-10-02T11:20:26.285Z,1.30
2022-10-02T11:31:26.201Z,1.40
2022-10-02T11:42:26.033Z,1.40
2022-10-02T11:53:25.921Z,2.00
2022-10-02T12:04:25.794Z,1.40
2022-10-02T12:15:25.656Z,2.00
2022-10-02T12:26:25.533Z,1.60
2022-10-02T12:37:25.402Z,2.10
2022-10-02T12:48:25.278Z,1.40
2022-10-02T12:59:25.179Z,2.00
2022-10-02T13:10:25.048Z,1.50
2022-10-02T13:21:24.900Z,2.30
2022-10-02T13:32:24.781Z,1.90
2022-10-02T13:43:24.643Z,2.10
2022-10-02T13:54:24.590Z,1.10
2022-10-02T14:05:24.423Z,1.20
2022-10-02T14:16:24.285Z,1.20
2022-10-02T14:27:24.527Z,1.20
2022-10-02T14:38:24.035Z,2.10
2022-10-02T14:49:23.880Z,1.50
2022-10-02T15:00:23.760Z,2.10
2022-10-02T15:11:23.638Z,1.80
2022-10-02T15:22:23.493Z,1.70
2022-10-02T15:33:23.369Z,1.40
2022-10-02T15:44:23.291Z,2.30
2022-10-02T15:55:23.210Z,2.60
2022-10-02T16:06:22.987Z,3.90
2022-10-02T16:17:22.862Z,3.40
2022-10-02T16:28:22.893Z,2.70
2022-10-02T16:39:22.633Z,3.00
2022-10-02T16:50:22.703Z,3.70
2022-10-02T17:01:22.502Z,4.40
2022-10-02T17:12:22.277Z,3.10
2022-10-02T17:23:22.139Z,4.60
2022-10-02T17:34:21.981Z,4.80
2022-10-02T17:45:21.896Z,5.20
2022-10-02T17:56:21.730Z,3.80
2022-10-02T18:07:21.606Z,4.30
2022-10-02T18:18:21.587Z,4.90
2022-10-02T18:29:21.471Z,6.50
2022-10-02T18:40:21.236Z,5.90
2022-10-02T18:51:21.149Z,5.70
2022-10-02T19:02:21.108Z,8.10
2022-10-02T19:13:20.948Z,7.70
2022-10-02T19:24:20.752Z,7.40
2022-10-02T19:35:20.613Z,6.70
2022-10-02T19:46:20.539Z,7.10
2022-10-02T19:57:20.376Z,8.30
2022-10-02T20:08:20.611Z,6.50
2022-10-02T20:19:20.124Z,9.30
2022-10-02T20:30:20.182Z,9.80
2022-10-02T20:41:19.923Z,11.20
2022-10-02T20:52:19.739Z,12.00
